sensor_id;sensor_type;location;lat;lon;timestamp;pressure;altitude;pressure_sealevel;temperature;humidity
46846;BME280;33947;46.804;134.252;2023-08-21T00:03:05;100485.00;;;26.80;63.44
46846;BME280;33947;46.804;134.252;2023-08-21T00:06:11;100490.72;;;26.87;63.62
46846;BME280;33947;46.804;134.252;2023-08-21T00:09:22;100481.97;;;26.83;63.79
46846;BME280;33947;46.804;134.252;2023-08-21T00:13:13;100410.00;;;27.04;62.89
46846;BME280;33947;46.804;134.252;2023-08-21T00:21:35;100491.31;;;27.19;62.81
46846;BME280;33947;46.804;134.252;2023-08-21T00:24:54;100443.13;;;26.71;63.66
46846;BME280;33947;46.804;134.252;2023-08-21T00:28:10;100478.78;;;26.98;64.28
46846;BME280;33947;46.804;134.252;2023-08-21T00:31:25;100448.28;;;27.12;63.23
46846;BME280;33947;46.804;134.252;2023-08-21T00:34:32;100464.34;;;27.62;61.74
46846;BME280;33947;46.804;134.252;2023-08-21T00:37:42;100496.19;;;27.89;61.79
46846;BME280;33947;46.804;134.252;2023-08-21T00:40:46;100474.41;;;27.61;62.37
46846;BME280;33947;46.804;134.252;2023-08-21T00:48:28;100395.66;;;27.30;64.16
46846;BME280;33947;46.804;134.252;2023-08-21T00:57:01;100451.84;;;29.36;59.17
46846;BME280;33947;46.804;134.252;2023-08-21T01:01:19;100418.28;;;30.18;57.48
46846;BME280;33947;46.804;134.252;2023-08-21T01:05:13;100424.19;;;31.03;55.26
46846;BME280;33947;46.804;134.252;2023-08-21T01:09:39;100412.13;;;32.29;52.38
46846;BME280;33947;46.804;134.252;2023-08-21T01:17:25;100409.88;;;33.44;48.93
46846;BME280;33947;46.804;134.252;2023-08-21T01:21:41;100406.38;;;34.01;49.22
46846;BME280;33947;46.804;134.252;2023-08-21T01:30:14;100415.72;;;35.68;44.70
46846;BME280;33947;46.804;134.252;2023-08-21T01:34:32;100462.09;;;36.13;43.92
46846;BME280;33947;46.804;134.252;2023-08-21T01:38:35;100451.69;;;36.01;43.67
46846;BME280;33947;46.804;134.252;2023-08-21T01:42:02;100442.72;;;35.86;43.90
46846;BME280;33947;46.804;134.252;2023-08-21T01:46:28;100418.94;;;36.25;42.63
46846;BME280;33947;46.804;134.252;2023-08-21T01:50:35;100392.78;;;36.14;42.64
46846;BME280;33947;46.804;134.252;2023-08-21T01:54:08;100416.56;;;35.95;42.83
46846;BME280;33947;46.804;134.252;2023-08-21T01:57:14;100420.63;;;35.79;43.16
46846;BME280;33947;46.804;134.252;2023-08-21T02:04:45;100444.59;;;35.52;44.56
46846;BME280;33947;46.804;134.252;2023-08-21T02:09:03;100444.03;;;35.21;45.91
46846;BME280;33947;46.804;134.252;2023-08-21T02:13:29;100456.22;;;34.49;46.84
46846;BME280;33947;46.804;134.252;2023-08-21T02:18:06;100420.53;;;34.19;46.75
46846;BME280;33947;46.804;134.252;2023-08-21T02:21:58;100348.09;;;33.75;47.42
46846;BME280;33947;46.804;134.252;2023-08-21T02:26:14;100333.16;;;33.63;47.58
46846;BME280;33947;46.804;134.252;2023-08-21T02:29:24;100403.84;;;33.77;47.72
46846;BME280;33947;46.804;134.252;2023-08-21T02:32:28;100390.06;;;33.77;47.85
46846;BME280;33947;46.804;134.252;2023-08-21T02:35:38;100392.41;;;33.81;48.08
46846;BME280;33947;46.804;134.252;2023-08-21T02:38:47;100381.38;;;33.74;47.67
46846;BME280;33947;46.804;134.252;2023-08-21T02:41:55;100386.41;;;33.48;48.05
46846;BME280;33947;46.804;134.252;2023-08-21T02:45:03;100365.72;;;33.16;48.77
46846;BME280;33947;46.804;134.252;2023-08-21T02:48:14;100368.38;;;33.09;48.75
46846;BME280;33947;46.804;134.252;2023-08-21T02:51:19;100374.25;;;33.21;48.85
46846;BME280;33947;46.804;134.252;2023-08-21T02:54:27;100366.19;;;33.19;49.02
46846;BME280;33947;46.804;134.252;2023-08-21T02:57:42;100337.81;;;32.97;49.51
46846;BME280;33947;46.804;134.252;2023-08-21T03:06:02;100265.34;;;32.38;49.42
46846;BME280;33947;46.804;134.252;2023-08-21T03:10:10;100305.44;;;32.32;49.79
46846;BME280;33947;46.804;134.252;2023-08-21T03:14:34;100262.47;;;31.71;49.87
46846;BME280;33947;46.804;134.252;2023-08-21T03:27:36;100326.56;;;32.17;49.73
46846;BME280;33947;46.804;134.252;2023-08-21T03:36:28;100278.00;;;31.64;50.44
46846;BME280;33947;46.804;134.252;2023-08-21T03:40:40;100266.94;;;31.34;51.35
46846;BME280;33947;46.804;134.252;2023-08-21T03:48:39;100188.47;;;31.01;51.21
46846;BME280;33947;46.804;134.252;2023-08-21T03:53:02;100308.19;;;31.64;51.20
46846;BME280;33947;46.804;134.252;2023-08-21T04:02:25;100195.44;;;30.89;52.25
46846;BME280;33947;46.804;134.252;2023-08-21T04:11:35;100240.03;;;31.06;52.17
46846;BME280;33947;46.804;134.252;2023-08-21T04:15:12;100239.53;;;31.02;52.31
46846;BME280;33947;46.804;134.252;2023-08-21T04:19:11;100213.53;;;30.75;52.95
46846;BME280;33947;46.804;134.252;2023-08-21T04:27:59;100237.94;;;30.61;52.16
46846;BME280;33947;46.804;134.252;2023-08-21T04:32:01;100229.19;;;30.58;51.62
46846;BME280;33947;46.804;134.252;2023-08-21T04:36:07;100222.84;;;30.66;51.55
46846;BME280;33947;46.804;134.252;2023-08-21T04:40:17;100230.03;;;30.67;52.31
46846;BME280;33947;46.804;134.252;2023-08-21T04:43:28;100268.63;;;30.88;52.96
46846;BME280;33947;46.804;134.252;2023-08-21T04:46:43;100253.19;;;30.87;52.91
46846;BME280;33947;46.804;134.252;2023-08-21T04:49:50;100243.97;;;30.88;52.71
46846;BME280;33947;46.804;134.252;2023-08-21T04:52:58;100247.38;;;30.90;52.34
46846;BME280;33947;46.804;134.252;2023-08-21T04:56:04;100237.78;;;30.86;53.14
46846;BME280;33947;46.804;134.252;2023-08-21T04:59:09;100206.53;;;30.72;52.17
46846;BME280;33947;46.804;134.252;2023-08-21T05:02:14;100219.00;;;30.75;52.55
46846;BME280;33947;46.804;134.252;2023-08-21T05:05:22;100181.09;;;30.55;52.60
46846;BME280;33947;46.804;134.252;2023-08-21T05:08:28;100197.53;;;30.55;52.79
46846;BME280;33947;46.804;134.252;2023-08-21T05:11:32;100223.09;;;30.47;53.37
46846;BME280;33947;46.804;134.252;2023-08-21T05:14:40;100215.69;;;30.56;53.11
46846;BME280;33947;46.804;134.252;2023-08-21T05:17:44;100174.59;;;30.48;53.32
46846;BME280;33947;46.804;134.252;2023-08-21T05:21:50;100152.63;;;30.33;53.13
46846;BME280;33947;46.804;134.252;2023-08-21T05:25:40;100171.84;;;30.56;53.07
46846;BME280;33947;46.804;134.252;2023-08-21T05:29:47;100179.09;;;30.96;53.83
46846;BME280;33947;46.804;134.252;2023-08-21T05:34:10;100128.97;;;30.64;53.53
46846;BME280;33947;46.804;134.252;2023-08-21T05:38:14;100162.75;;;30.79;53.19
46846;BME280;33947;46.804;134.252;2023-08-21T05:42:07;100113.53;;;30.39;53.46
46846;BME280;33947;46.804;134.252;2023-08-21T05:46:21;100175.81;;;30.77;53.34
46846;BME280;33947;46.804;134.252;2023-08-21T05:49:50;100107.03;;;30.40;53.13
46846;BME280;33947;46.804;134.252;2023-08-21T05:53:49;100104.81;;;30.36;53.05
46846;BME280;33947;46.804;134.252;2023-08-21T05:57:43;100092.59;;;30.23;53.38
46846;BME280;33947;46.804;134.252;2023-08-21T06:01:59;100079.66;;;30.09;53.68
46846;BME280;33947;46.804;134.252;2023-08-21T06:06:09;100082.78;;;29.97;54.03
46846;BME280;33947;46.804;134.252;2023-08-21T06:09:50;100073.38;;;29.92;54.41
46846;BME280;33947;46.804;134.252;2023-08-21T06:17:21;100077.78;;;30.09;54.44
46846;BME280;33947;46.804;134.252;2023-08-21T06:25:37;100048.28;;;29.88;54.75
46846;BME280;33947;46.804;134.252;2023-08-21T06:29:59;100078.06;;;29.83;55.06
46846;BME280;33947;46.804;134.252;2023-08-21T06:37:23;100083.78;;;30.04;55.07
46846;BME280;33947;46.804;134.252;2023-08-21T06:41:34;100074.06;;;30.02;55.43
46846;BME280;33947;46.804;134.252;2023-08-21T06:44:58;100120.94;;;30.30;55.42
46846;BME280;33947;46.804;134.252;2023-08-21T06:48:05;100120.34;;;30.43;55.30
46846;BME280;33947;46.804;134.252;2023-08-21T06:51:11;100129.13;;;30.39;55.15
46846;BME280;33947;46.804;134.252;2023-08-21T06:54:24;100112.06;;;30.28;55.57
46846;BME280;33947;46.804;134.252;2023-08-21T06:57:30;100121.81;;;30.31;55.87
46846;BME280;33947;46.804;134.252;2023-08-21T07:00:43;100065.00;;;29.93;56.02
46846;BME280;33947;46.804;134.252;2023-08-21T07:03:56;100096.09;;;30.09;56.31
46846;BME280;33947;46.804;134.252;2023-08-21T07:07:03;100111.81;;;30.15;56.44
46846;BME280;33947;46.804;134.252;2023-08-21T07:10:17;100114.59;;;30.07;56.86
46846;BME280;33947;46.804;134.252;2023-08-21T07:13:53;100059.34;;;29.63;56.80
46846;BME280;33947;46.804;134.252;2023-08-21T07:18:15;100047.13;;;29.42;56.79
46846;BME280;33947;46.804;134.252;2023-08-21T07:22:05;100052.78;;;29.32;57.95
46846;BME280;33947;46.804;134.252;2023-08-21T07:26:09;100123.63;;;29.75;57.64
46846;BME280;33947;46.804;134.252;2023-08-21T07:30:19;100093.78;;;29.57;58.25
46846;BME280;33947;46.804;134.252;2023-08-21T07:34:15;100048.81;;;29.35;58.28
46846;BME280;33947;46.804;134.252;2023-08-21T07:38:20;100062.84;;;29.49;58.06
46846;BME280;33947;46.804;134.252;2023-08-21T07:41:42;100096.63;;;29.64;58.48
46846;BME280;33947;46.804;134.252;2023-08-21T07:44:56;100106.38;;;29.67;58.18
46846;BME280;33947;46.804;134.252;2023-08-21T07:48:02;100101.97;;;29.57;59.05
46846;BME280;33947;46.804;134.252;2023-08-21T07:51:16;100084.75;;;29.40;58.76
46846;BME280;33947;46.804;134.252;2023-08-21T07:54:25;100107.47;;;29.49;59.04
46846;BME280;33947;46.804;134.252;2023-08-21T07:57:47;100098.25;;;29.42;59.25
46846;BME280;33947;46.804;134.252;2023-08-21T08:01:02;100101.31;;;29.39;59.17
46846;BME280;33947;46.804;134.252;2023-08-21T08:04:39;100096.22;;;29.27;59.87
46846;BME280;33947;46.804;134.252;2023-08-21T08:08:01;100097.28;;;29.18;60.71
46846;BME280;33947;46.804;134.252;2023-08-21T08:11:39;100091.13;;;29.08;60.58
46846;BME280;33947;46.804;134.252;2023-08-21T08:15:06;100016.84;;;28.54;60.87
46846;BME280;33947;46.804;134.252;2023-08-21T08:18:26;100077.50;;;28.91;61.08
46846;BME280;33947;46.804;134.252;2023-08-21T08:22:19;100037.69;;;28.55;61.25
46846;BME280;33947;46.804;134.252;2023-08-21T08:34:57;99994.44;;;28.01;63.65
46846;BME280;33947;46.804;134.252;2023-08-21T08:38:42;99968.16;;;27.83;64.08
46846;BME280;33947;46.804;134.252;2023-08-21T08:46:50;100075.75;;;28.32;65.66
46846;BME280;33947;46.804;134.252;2023-08-21T08:50:37;100029.91;;;27.84;67.60
46846;BME280;33947;46.804;134.252;2023-08-21T08:54:22;99958.16;;;27.41;67.92
46846;BME280;33947;46.804;134.252;2023-08-21T09:02:57;100009.88;;;27.51;68.95
46846;BME280;33947;46.804;134.252;2023-08-21T09:06:43;100002.63;;;27.41;71.87
46846;BME280;33947;46.804;134.252;2023-08-21T09:10:36;100076.66;;;27.81;71.00
46846;BME280;33947;46.804;134.252;2023-08-21T09:14:29;99961.31;;;27.11;71.76
46846;BME280;33947;46.804;134.252;2023-08-21T09:22:55;100001.69;;;27.16;73.21
46846;BME280;33947;46.804;134.252;2023-08-21T09:27:34;99997.22;;;27.07;74.47
46846;BME280;33947;46.804;134.252;2023-08-21T09:31:55;100058.84;;;27.26;76.26
46846;BME280;33947;46.804;134.252;2023-08-21T09:36:25;100012.34;;;27.01;73.31
46846;BME280;33947;46.804;134.252;2023-08-21T09:40:22;99975.19;;;26.73;73.21
46846;BME280;33947;46.804;134.252;2023-08-21T09:44:17;100009.13;;;26.79;73.36
46846;BME280;33947;46.804;134.252;2023-08-21T09:48:05;99983.38;;;26.47;74.30
46846;BME280;33947;46.804;134.252;2023-08-21T09:51:39;99970.88;;;26.18;74.91
46846;BME280;33947;46.804;134.252;2023-08-21T09:55:54;100019.03;;;26.36;75.24
46846;BME280;33947;46.804;134.252;2023-08-21T09:59:11;100011.31;;;26.31;75.22
46846;BME280;33947;46.804;134.252;2023-08-21T10:02:21;100048.88;;;26.46;75.88
46846;BME280;33947;46.804;134.252;2023-08-21T10:05:35;100045.00;;;26.30;76.50
46846;BME280;33947;46.804;134.252;2023-08-21T10:08:48;100049.06;;;26.26;76.94
46846;BME280;33947;46.804;134.252;2023-08-21T10:11:57;100034.78;;;26.14;77.36
46846;BME280;33947;46.804;134.252;2023-08-21T10:15:02;99981.59;;;25.65;77.90
46846;BME280;33947;46.804;134.252;2023-08-21T10:18:21;100017.81;;;25.84;78.89
46846;BME280;33947;46.804;134.252;2023-08-21T10:21:35;100033.44;;;25.82;78.88
46846;BME280;33947;46.804;134.252;2023-08-21T10:24:40;100041.59;;;25.82;79.08
46846;BME280;33947;46.804;134.252;2023-08-21T10:28:25;99942.22;;;25.13;79.41
46846;BME280;33947;46.804;134.252;2023-08-21T10:32:19;99912.97;;;24.97;81.22
46846;BME280;33947;46.804;134.252;2023-08-21T10:35:44;100016.63;;;25.50;80.18
46846;BME280;33947;46.804;134.252;2023-08-21T10:39:23;99969.66;;;25.20;80.25
46846;BME280;33947;46.804;134.252;2023-08-21T10:42:42;99932.59;;;24.91;79.90
46846;BME280;33947;46.804;134.252;2023-08-21T10:46:10;99956.00;;;25.02;80.74
46846;BME280;33947;46.804;134.252;2023-08-21T10:49:31;99997.53;;;25.22;80.31
46846;BME280;33947;46.804;134.252;2023-08-21T10:52:40;100039.50;;;25.48;80.08
46846;BME280;33947;46.804;134.252;2023-08-21T10:55:54;100023.38;;;25.36;80.32
46846;BME280;33947;46.804;134.252;2023-08-21T10:59:00;100015.97;;;25.28;80.51
46846;BME280;33947;46.804;134.252;2023-08-21T11:02:07;100043.84;;;25.31;81.08
46846;BME280;33947;46.804;134.252;2023-08-21T11:05:12;100035.03;;;25.19;81.60
46846;BME280;33947;46.804;134.252;2023-08-21T11:08:18;99983.50;;;24.89;81.88
46846;BME280;33947;46.804;134.252;2023-08-21T11:11:24;100008.25;;;24.96;82.36
46846;BME280;33947;46.804;134.252;2023-08-21T11:14:32;100021.53;;;24.99;82.77
46846;BME280;33947;46.804;134.252;2023-08-21T11:17:40;100034.09;;;25.00;82.85
46846;BME280;33947;46.804;134.252;2023-08-21T11:20:47;100028.38;;;25.03;82.36
46846;BME280;33947;46.804;134.252;2023-08-21T11:23:53;100017.00;;;24.90;82.60
46846;BME280;33947;46.804;134.252;2023-08-21T11:27:06;100034.00;;;24.92;83.05
46846;BME280;33947;46.804;134.252;2023-08-21T11:30:11;100031.16;;;24.83;83.52
46846;BME280;33947;46.804;134.252;2023-08-21T11:33:16;100029.31;;;24.74;84.11
46846;BME280;33947;46.804;134.252;2023-08-21T11:36:22;100026.88;;;24.61;84.72
46846;BME280;33947;46.804;134.252;2023-08-21T11:39:26;100026.59;;;24.54;85.13
46846;BME280;33947;46.804;134.252;2023-08-21T11:42:33;100026.19;;;24.49;85.57
46846;BME280;33947;46.804;134.252;2023-08-21T11:45:37;100019.03;;;24.38;85.78
46846;BME280;33947;46.804;134.252;2023-08-21T11:49:03;100029.75;;;24.40;85.30
46846;BME280;33947;46.804;134.252;2023-08-21T11:52:09;100018.22;;;24.28;86.57
46846;BME280;33947;46.804;134.252;2023-08-21T11:55:13;100008.06;;;24.20;87.07
46846;BME280;33947;46.804;134.252;2023-08-21T11:58:18;100002.63;;;24.20;86.47
46846;BME280;33947;46.804;134.252;2023-08-21T12:01:23;100008.47;;;24.25;86.22
46846;BME280;33947;46.804;134.252;2023-08-21T12:04:29;100020.75;;;24.30;86.18
46846;BME280;33947;46.804;134.252;2023-08-21T12:07:34;100013.19;;;24.23;86.87
46846;BME280;33947;46.804;134.252;2023-08-21T12:10:38;100008.47;;;24.25;86.38
46846;BME280;33947;46.804;134.252;2023-08-21T12:13:44;100011.47;;;24.22;86.65
46846;BME280;33947;46.804;134.252;2023-08-21T12:16:48;99995.50;;;24.19;86.64
46846;BME280;33947;46.804;134.252;2023-08-21T12:19:52;100001.03;;;24.18;86.58
46846;BME280;33947;46.804;134.252;2023-08-21T12:22:57;99979.50;;;24.06;86.88
46846;BME280;33947;46.804;134.252;2023-08-21T12:26:04;99977.06;;;24.13;86.96
46846;BME280;33947;46.804;134.252;2023-08-21T12:29:08;99986.16;;;23.92;89.88
46846;BME280;33947;46.804;134.252;2023-08-21T12:32:13;99976.91;;;24.05;87.70
46846;BME280;33947;46.804;134.252;2023-08-21T12:35:24;99990.22;;;24.08;87.26
46846;BME280;33947;46.804;134.252;2023-08-21T12:38:28;99956.75;;;23.97;86.97
46846;BME280;33947;46.804;134.252;2023-08-21T12:41:41;99967.81;;;24.06;87.64
46846;BME280;33947;46.804;134.252;2023-08-21T12:44:47;99966.81;;;24.07;87.68
46846;BME280;33947;46.804;134.252;2023-08-21T12:47:51;99936.06;;;23.87;87.88
46846;BME280;33947;46.804;134.252;2023-08-21T12:50:55;99959.22;;;24.01;88.00
46846;BME280;33947;46.804;134.252;2023-08-21T12:53:59;99956.03;;;23.95;88.72
46846;BME280;33947;46.804;134.252;2023-08-21T12:57:04;99952.63;;;23.93;89.06
46846;BME280;33947;46.804;134.252;2023-08-21T13:00:11;99932.91;;;23.91;88.97
46846;BME280;33947;46.804;134.252;2023-08-21T13:03:16;99945.19;;;23.95;88.80
46846;BME280;33947;46.804;134.252;2023-08-21T13:06:20;99940.50;;;23.88;88.56
46846;BME280;33947;46.804;134.252;2023-08-21T13:09:25;99950.59;;;23.85;89.73
46846;BME280;33947;46.804;134.252;2023-08-21T13:12:54;99943.34;;;23.86;89.58
46846;BME280;33947;46.804;134.252;2023-08-21T13:15:58;99952.59;;;23.83;89.92
46846;BME280;33947;46.804;134.252;2023-08-21T13:19:03;99931.78;;;23.74;89.68
46846;BME280;33947;46.804;134.252;2023-08-21T13:22:07;99950.78;;;23.84;89.22
46846;BME280;33947;46.804;134.252;2023-08-21T13:25:11;99931.78;;;23.74;89.49
46846;BME280;33947;46.804;134.252;2023-08-21T13:28:15;99943.03;;;23.79;89.76
46846;BME280;33947;46.804;134.252;2023-08-21T13:31:20;99933.50;;;23.75;90.10
46846;BME280;33947;46.804;134.252;2023-08-21T13:34:24;99890.38;;;23.42;90.64
46846;BME280;33947;46.804;134.252;2023-08-21T13:37:53;99875.97;;;23.42;90.40
46846;BME280;33947;46.804;134.252;2023-08-21T13:41:03;99822.72;;;23.11;90.12
46846;BME280;33947;46.804;134.252;2023-08-21T13:44:12;99861.13;;;23.46;89.66
46846;BME280;33947;46.804;134.252;2023-08-21T13:47:22;99878.69;;;23.62;88.85
46846;BME280;33947;46.804;134.252;2023-08-21T13:50:27;99906.38;;;23.95;87.64
46846;BME280;33947;46.804;134.252;2023-08-21T13:53:37;99882.66;;;23.97;86.24
46846;BME280;33947;46.804;134.252;2023-08-21T13:56:46;99894.94;;;24.21;85.22
46846;BME280;33947;46.804;134.252;2023-08-21T13:59:53;99888.94;;;24.27;84.78
46846;BME280;33947;46.804;134.252;2023-08-21T14:03:05;99882.03;;;24.33;84.19
46846;BME280;33947;46.804;134.252;2023-08-21T14:06:17;99884.03;;;24.40;83.55
46846;BME280;33947;46.804;134.252;2023-08-21T14:09:52;99873.31;;;24.39;82.57
46846;BME280;33947;46.804;134.252;2023-08-21T14:13:37;99843.94;;;24.24;81.86
46846;BME280;33947;46.804;134.252;2023-08-21T14:17:23;99879.13;;;24.54;81.27
46846;BME280;33947;46.804;134.252;2023-08-21T14:20:30;99872.53;;;24.56;80.72
46846;BME280;33947;46.804;134.252;2023-08-21T14:23:34;99853.59;;;24.37;80.61
46846;BME280;33947;46.804;134.252;2023-08-21T14:26:39;99877.09;;;24.56;80.05
46846;BME280;33947;46.804;134.252;2023-08-21T14:29:47;99893.06;;;24.79;79.36
46846;BME280;33947;46.804;134.252;2023-08-21T14:32:51;99892.63;;;24.83;78.96
46846;BME280;33947;46.804;134.252;2023-08-21T14:35:58;99897.25;;;25.01;78.67
46846;BME280;33947;46.804;134.252;2023-08-21T14:39:03;99830.88;;;24.38;80.29
46846;BME280;33947;46.804;134.252;2023-08-21T14:42:21;99816.22;;;24.21;81.50
46846;BME280;33947;46.804;134.252;2023-08-21T14:46:00;99802.13;;;23.97;82.09
46846;BME280;33947;46.804;134.252;2023-08-21T14:49:12;99822.13;;;23.96;82.73
46846;BME280;33947;46.804;134.252;2023-08-21T14:52:21;99811.00;;;24.09;82.68
46846;BME280;33947;46.804;134.252;2023-08-21T14:55:43;99738.44;;;23.54;83.34
46846;BME280;33947;46.804;134.252;2023-08-21T14:59:00;99862.94;;;24.24;84.05
46846;BME280;33947;46.804;134.252;2023-08-21T15:02:17;99860.69;;;24.10;85.19
46846;BME280;33947;46.804;134.252;2023-08-21T15:05:42;99858.25;;;23.87;86.12
46846;BME280;33947;46.804;134.252;2023-08-21T15:08:52;99863.41;;;23.90;86.49
46846;BME280;33947;46.804;134.252;2023-08-21T15:11:58;99847.53;;;23.85;86.20
46846;BME280;33947;46.804;134.252;2023-08-21T15:15:02;99830.72;;;23.72;86.74
46846;BME280;33947;46.804;134.252;2023-08-21T15:18:30;99831.84;;;23.79;86.85
46846;BME280;33947;46.804;134.252;2023-08-21T15:21:36;99819.59;;;23.75;86.24
46846;BME280;33947;46.804;134.252;2023-08-21T15:24:46;99825.59;;;23.79;86.11
46846;BME280;33947;46.804;134.252;2023-08-21T15:27:56;99849.84;;;23.90;85.86
46846;BME280;33947;46.804;134.252;2023-08-21T15:31:03;99831.44;;;23.84;85.64
46846;BME280;33947;46.804;134.252;2023-08-21T15:34:09;99862.41;;;23.91;85.70
46846;BME280;33947;46.804;134.252;2023-08-21T15:37:13;99850.41;;;23.64;87.62
46846;BME280;33947;46.804;134.252;2023-08-21T15:40:19;99822.03;;;23.49;88.71
46846;BME280;33947;46.804;134.252;2023-08-21T15:43:29;99817.31;;;23.41;89.31
46846;BME280;33947;46.804;134.252;2023-08-21T15:46:34;99823.59;;;23.32;90.31
46846;BME280;33947;46.804;134.252;2023-08-21T15:49:41;99785.50;;;23.13;91.48
46846;BME280;33947;46.804;134.252;2023-08-21T15:52:48;99762.38;;;22.99;91.73
46846;BME280;33947;46.804;134.252;2023-08-21T15:55:54;99788.19;;;23.13;92.40
46846;BME280;33947;46.804;134.252;2023-08-21T15:58:59;99775.06;;;23.09;92.60
46846;BME280;33947;46.804;134.252;2023-08-21T16:02:04;99791.06;;;23.12;92.60
46846;BME280;33947;46.804;134.252;2023-08-21T16:05:10;99811.88;;;23.21;92.72
46846;BME280;33947;46.804;134.252;2023-08-21T16:08:19;99802.16;;;23.09;92.73
46846;BME280;33947;46.804;134.252;2023-08-21T16:11:32;99798.19;;;23.23;92.32
46846;BME280;33947;46.804;134.252;2023-08-21T16:14:42;99810.56;;;23.06;93.63
46846;BME280;33947;46.804;134.252;2023-08-21T16:17:58;99811.97;;;22.90;95.83
46846;BME280;33947;46.804;134.252;2023-08-21T16:21:12;99806.56;;;22.90;95.46
46846;BME280;33947;46.804;134.252;2023-08-21T16:24:17;99803.44;;;22.95;95.32
46846;BME280;33947;46.804;134.252;2023-08-21T16:27:22;99793.47;;;22.95;95.10
46846;BME280;33947;46.804;134.252;2023-08-21T16:30:29;99809.13;;;23.02;95.10
46846;BME280;33947;46.804;134.252;2023-08-21T16:33:33;99781.59;;;22.87;95.08
46846;BME280;33947;46.804;134.252;2023-08-21T16:36:41;99800.59;;;23.06;94.92
46846;BME280;33947;46.804;134.252;2023-08-21T16:39:49;99783.91;;;22.91;94.80
46846;BME280;33947;46.804;134.252;2023-08-21T16:43:04;99754.38;;;22.78;95.50
46846;BME280;33947;46.804;134.252;2023-08-21T16:46:31;99786.47;;;23.03;95.57
46846;BME280;33947;46.804;134.252;2023-08-21T16:49:36;99777.50;;;23.02;95.33
46846;BME280;33947;46.804;134.252;2023-08-21T16:52:40;99763.97;;;23.02;95.59
46846;BME280;33947;46.804;134.252;2023-08-21T16:55:44;99771.38;;;23.00;95.40
46846;BME280;33947;46.804;134.252;2023-08-21T16:58:53;99774.81;;;23.02;95.75
46846;BME280;33947;46.804;134.252;2023-08-21T17:01:57;99772.78;;;22.94;96.10
46846;BME280;33947;46.804;134.252;2023-08-21T17:05:01;99774.78;;;22.92;96.18
46846;BME280;33947;46.804;134.252;2023-08-21T17:08:11;99780.31;;;22.91;96.52
46846;BME280;33947;46.804;134.252;2023-08-21T17:11:16;99773.66;;;23.05;95.55
46846;BME280;33947;46.804;134.252;2023-08-21T17:14:20;99772.63;;;22.86;96.62
46846;BME280;33947;46.804;134.252;2023-08-21T17:17:24;99778.91;;;22.87;96.63
46846;BME280;33947;46.804;134.252;2023-08-21T17:20:30;99759.06;;;22.76;97.03
46846;BME280;33947;46.804;134.252;2023-08-21T17:23:37;99767.47;;;22.73;97.99
46846;BME280;33947;46.804;134.252;2023-08-21T17:26:41;99763.06;;;22.72;98.56
46846;BME280;33947;46.804;134.252;2023-08-21T17:29:45;99766.78;;;22.71;98.10
46846;BME280;33947;46.804;134.252;2023-08-21T17:32:53;99759.94;;;22.77;98.15
46846;BME280;33947;46.804;134.252;2023-08-21T17:35:57;99731.28;;;22.64;98.15
46846;BME280;33947;46.804;134.252;2023-08-21T17:39:01;99728.28;;;22.67;98.76
46846;BME280;33947;46.804;134.252;2023-08-21T17:42:06;99739.09;;;22.67;98.58
46846;BME280;33947;46.804;134.252;2023-08-21T17:45:14;99729.44;;;22.65;98.34
46846;BME280;33947;46.804;134.252;2023-08-21T17:48:18;99684.75;;;22.30;99.20
46846;BME280;33947;46.804;134.252;2023-08-21T17:51:28;99716.59;;;22.57;99.26
46846;BME280;33947;46.804;134.252;2023-08-21T17:54:35;99691.47;;;22.45;99.94
46846;BME280;33947;46.804;134.252;2023-08-21T17:57:39;99698.50;;;22.58;99.24
46846;BME280;33947;46.804;134.252;2023-08-21T18:00:50;99689.41;;;22.59;99.20
46846;BME280;33947;46.804;134.252;2023-08-21T18:03:55;99680.81;;;22.53;99.87
46846;BME280;33947;46.804;134.252;2023-08-21T18:07:02;99685.81;;;22.58;100.00
46846;BME280;33947;46.804;134.252;2023-08-21T18:10:11;99686.69;;;22.59;99.65
46846;BME280;33947;46.804;134.252;2023-08-21T18:13:20;99661.84;;;22.44;99.73
46846;BME280;33947;46.804;134.252;2023-08-21T18:16:37;99675.28;;;22.55;99.72
46846;BME280;33947;46.804;134.252;2023-08-21T18:19:59;99659.31;;;22.52;99.99
46846;BME280;33947;46.804;134.252;2023-08-21T18:23:05;99651.91;;;22.54;99.73
46846;BME280;33947;46.804;134.252;2023-08-21T18:26:10;99659.19;;;22.73;99.68
46846;BME280;33947;46.804;134.252;2023-08-21T18:29:19;99651.78;;;22.65;99.70
46846;BME280;33947;46.804;134.252;2023-08-21T18:32:37;99633.78;;;22.45;100.00
46846;BME280;33947;46.804;134.252;2023-08-21T18:35:44;99633.28;;;22.61;100.00
46846;BME280;33947;46.804;134.252;2023-08-21T18:38:48;99627.69;;;22.52;100.00
46846;BME280;33947;46.804;134.252;2023-08-21T18:41:52;99603.41;;;22.31;100.00
46846;BME280;33947;46.804;134.252;2023-08-21T18:45:03;99635.09;;;22.60;100.00
46846;BME280;33947;46.804;134.252;2023-08-21T18:48:10;99609.75;;;22.51;100.00
46846;BME280;33947;46.804;134.252;2023-08-21T18:51:16;99606.03;;;22.43;100.00
46846;BME280;33947;46.804;134.252;2023-08-21T18:54:20;99618.13;;;22.48;100.00
46846;BME280;33947;46.804;134.252;2023-08-21T18:57:27;99608.47;;;22.55;100.00
46846;BME280;33947;46.804;134.252;2023-08-21T19:00:32;99606.31;;;22.59;100.00
46846;BME280;33947;46.804;134.252;2023-08-21T19:03:39;99610.59;;;22.52;100.00